Time;durP1;ratioP1;P1;durP2;ratioP2;P2;SDS_P1;SDS_P2;PMS_P1;PMS_P2;Temp;Humidity;BMP_temperature;BMP_pressure;BME280_temperature;BME280_humidity;BME280_pressure;Samples;Min_cycle;Max_cycle;Signal;HPM_P1;HPM_P2
2023/02/01 00:01:56;;;;;;;8.13;3.78;;;;;;;16.98;50.35;101997.41;4864464;29;20041;-81
2023/02/01 00:04:21;;;;;;;9.20;3.50;;;;;;;16.96;50.38;101996.56;4881073;29;20045;-82
2023/02/01 00:06:47;;;;;;;8.68;3.60;;;;;;;16.98;50.20;101996.56;4833651;29;20041;-79
2023/02/01 00:09:13;;;;;;;10.52;4.22;;;;;;;16.96;50.34;101996.56;4864030;29;20041;-81
2023/02/01 00:11:39;;;;;;;12.95;3.45;;;;;;;16.95;50.31;101997.38;4848697;29;20467;-82
2023/02/01 00:14:05;;;;;;;8.52;3.72;;;;;;;16.96;50.41;101995.66;4848325;29;20078;-82
2023/02/01 00:16:31;;;;;;;10.20;4.30;;;;;;;16.97;50.18;102002.63;4848463;29;20044;-82
2023/02/01 00:18:58;;;;;;;11.52;3.88;;;;;;;16.95;50.35;101991.31;4848399;29;20041;-82
2023/02/01 00:21:24;;;;;;;10.13;3.88;;;;;;;16.95;50.55;101993.94;4863902;29;20044;-82
2023/02/01 00:23:49;;;;;;;8.13;3.42;;;;;;;16.96;50.25;101998.25;4848364;29;20044;-83
2023/02/01 00:26:17;;;;;;;9.13;3.63;;;;;;;16.95;50.18;102005.19;4848525;29;20037;-80
2023/02/01 00:28:43;;;;;;;9.20;3.72;;;;;;;16.95;50.39;102004.31;4863503;29;20044;-81
2023/02/01 00:31:08;;;;;;;9.30;3.60;;;;;;;16.94;50.18;101985.25;4848643;29;20041;-83
2023/02/01 00:33:34;;;;;;;9.77;3.33;;;;;;;16.94;50.17;101995.66;4848145;29;20045;-81
2023/02/01 00:36:03;;;;;;;9.43;3.58;;;;;;;16.94;50.16;101981.75;4863948;29;20055;-80
2023/02/01 00:38:29;;;;;;;7.15;3.42;;;;;;;16.93;50.16;101991.31;4865214;29;20161;-82
2023/02/01 00:41:05;;;;;;;6.65;3.45;;;;;;;16.93;50.10;101985.22;4867393;29;20029;-81
2023/02/01 00:43:31;;;;;;;8.75;3.38;;;;;;;16.92;50.27;101975.66;4867347;29;20033;-83
2023/02/01 00:45:57;;;;;;;8.77;3.92;;;;;;;16.93;50.17;101977.44;4883934;29;20081;-82
2023/02/01 00:48:22;;;;;;;7.43;3.13;;;;;;;16.92;50.26;101967.88;4851920;29;20036;-81
2023/02/01 00:50:48;;;;;;;7.10;3.20;;;;;;;16.93;49.88;101951.44;4851738;29;20205;-82
2023/02/01 00:53:13;;;;;;;6.43;3.15;;;;;;;16.93;50.13;101951.44;4851610;29;20040;-81
2023/02/01 00:55:38;;;;;;;7.50;3.47;;;;;;;16.92;50.32;101939.28;4852413;29;20057;-80
2023/02/01 00:58:05;;;;;;;8.20;3.42;;;;;;;16.92;50.12;101950.56;4851565;29;20488;-80
2023/02/01 01:00:32;;;;;;;8.05;3.50;;;;;;;16.91;50.09;101948.81;4852089;29;20041;-80
2023/02/01 01:02:57;;;;;;;8.85;3.25;;;;;;;16.93;50.18;101951.44;4851464;29;20033;-80
2023/02/01 01:05:23;;;;;;;6.07;3.00;;;;;;;16.93;49.90;101964.44;4836159;29;20523;-82
2023/02/01 01:07:49;;;;;;;8.10;3.25;;;;;;;16.93;50.09;101962.69;4851601;29;20041;-83
2023/02/01 01:10:14;;;;;;;8.52;3.35;;;;;;;16.91;50.16;101946.22;4851338;29;20061;-83
2023/02/01 01:12:40;;;;;;;6.82;3.10;;;;;;;16.92;50.36;101968.78;4851281;29;20105;-80
2023/02/01 01:15:06;;;;;;;8.18;3.33;;;;;;;16.93;50.01;101964.44;4851329;29;20040;-81
2023/02/01 01:17:32;;;;;;;7.90;3.25;;;;;;;16.92;50.12;101955.78;4836095;29;20488;-82
2023/02/01 01:19:57;;;;;;;6.25;2.92;;;;;;;16.91;49.75;101959.22;4866945;29;20036;-83
2023/02/01 01:22:23;;;;;;;7.53;3.28;;;;;;;16.91;49.70;101959.22;4851050;29;20041;-83
2023/02/01 01:24:48;;;;;;;8.48;3.35;;;;;;;16.91;49.93;101969.59;4836106;29;20049;-82
2023/02/01 01:27:14;;;;;;;6.70;2.90;;;;;;;16.90;50.10;101956.59;4835833;29;20496;-83
2023/02/01 01:29:40;;;;;;;7.72;2.83;;;;;;;16.91;50.01;101973.94;4851257;29;20041;-82
2023/02/01 01:32:05;;;;;;;8.18;3.08;;;;;;;16.90;50.18;101967.88;4851002;29;20064;-81
2023/02/01 01:34:31;;;;;;;7.13;2.92;;;;;;;16.89;50.00;101953.13;4835672;29;20396;-83
2023/02/01 01:36:56;;;;;;;8.95;3.25;;;;;;;16.88;50.18;101953.97;4850881;29;20051;-82
2023/02/01 01:39:21;;;;;;;6.28;3.03;;;;;;;16.89;50.08;101947.91;4850885;29;20213;-80
2023/02/01 01:41:47;;;;;;;5.47;2.70;;;;;;;16.91;49.94;101956.59;4851090;29;20053;-81
2023/02/01 01:44:49;;;;;;;7.90;3.15;;;;;;;16.89;50.07;101950.50;4835386;29;20128;-84
2023/02/01 01:47:16;;;;;;;8.18;3.08;;;;;;;16.89;49.99;101945.31;4866151;29;20033;-84
2023/02/01 01:49:42;;;;;;;7.68;2.88;;;;;;;16.86;49.99;101948.75;4834776;29;20033;-80
2023/02/01 01:52:08;;;;;;;7.57;3.03;;;;;;;16.88;49.98;101943.59;4866239;29;20037;-81
2023/02/01 01:54:44;;;;;;;9.43;2.88;;;;;;;16.87;49.92;101934.03;4850718;29;20045;-82
2023/02/01 01:57:22;;;;;;;7.32;2.80;;;;;;;16.87;50.12;101936.63;4865934;29;20494;-79
2023/02/01 01:59:53;;;;;;;7.45;2.80;;;;;;;16.87;49.92;101936.63;4865884;29;20036;-82
2023/02/01 02:02:19;;;;;;;6.22;3.15;;;;;;;16.87;50.00;101934.03;4865816;29;20396;-79
2023/02/01 02:04:46;;;;;;;6.22;2.60;;;;;;;16.87;50.22;101939.22;4882978;29;20043;-82
2023/02/01 02:07:17;;;;;;;7.95;3.03;;;;;;;16.88;49.93;101937.53;4865759;29;20072;-81
2023/02/01 02:09:43;;;;;;;7.20;3.00;;;;;;;16.88;49.96;101929.72;4865641;29;20044;-79
2023/02/01 02:12:08;;;;;;;6.32;2.72;;;;;;;16.85;50.10;101933.13;4850697;29;20135;-81
2023/02/01 02:14:35;;;;;;;7.35;2.78;;;;;;;16.86;49.98;101929.69;4853728;29;20049;-83
2023/02/01 02:17:30;;;;;;;6.32;2.67;;;;;;;16.86;50.09;101921.91;4853267;29;20068;-82
2023/02/01 02:20:19;;;;;;;7.63;2.92;;;;;;;16.86;50.07;101933.16;4869254;29;20060;-83
2023/02/01 02:23:39;;;;;;;5.05;2.60;;;;;;;16.86;49.67;101917.56;4867606;29;20040;-83
2023/02/01 02:26:23;;;;;;;6.28;2.42;;;;;;;16.86;49.91;101921.91;4774155;30;20058;-83
2023/02/01 02:29:07;;;;;;;;;;;;;;;16.84;49.98;101914.06;4865904;29;20124;-84
2023/02/01 02:31:42;;;;;;;7.72;2.90;;;;;;;16.86;49.83;101911.50;4865530;29;19968;-81
2023/02/01 02:34:27;;;;;;;8.13;2.92;;;;;;;16.86;49.69;101901.09;4865344;29;20064;-78
2023/02/01 02:37:01;;;;;;;6.53;2.60;;;;;;;16.84;49.83;101888.06;4882310;29;20065;-80
2023/02/01 02:39:46;;;;;;;6.93;2.72;;;;;;;16.84;50.12;101882.88;4865499;29;20044;-80
2023/02/01 02:48:20;;;;;;;6.40;2.90;;;;;;;16.83;49.90;101875.94;4882424;29;20286;-81
2023/02/01 03:04:56;;;;;;;6.18;2.72;;;;;;;16.81;50.00;101875.06;4867926;29;20147;-83
2023/02/01 03:07:55;;;;;;;8.23;2.83;;;;;;;16.80;49.95;101891.50;4834830;29;20099;-80
2023/02/01 03:10:29;;;;;;;6.97;2.90;;;;;;;16.81;49.87;101871.56;4864962;29;20045;-83
2023/02/01 03:12:59;;;;;;;6.63;2.78;;;;;;;16.80;49.79;101875.91;4864738;29;20040;-82
2023/02/01 03:15:43;;;;;;;7.20;2.85;;;;;;;16.80;49.90;101868.09;4864928;29;20048;-83
2023/02/01 03:18:16;;;;;;;;;;;;;;;16.81;49.72;101876.75;4864919;29;20044;-80
2023/02/01 03:20:46;;;;;;;7.45;2.40;;;;;;;16.80;49.79;101875.03;4864846;29;19912;-82
2023/02/01 03:23:15;;;;;;;5.65;2.58;;;;;;;16.79;49.56;101876.72;4849579;29;20037;-82
2023/02/01 03:25:41;;;;;;;9.05;2.80;;;;;;;16.79;49.79;101868.94;4864685;29;20063;-84
2023/02/01 03:28:09;;;;;;;6.75;2.53;;;;;;;16.79;49.75;101875.88;4834341;29;20037;-81
2023/02/01 03:30:40;;;;;;;6.70;2.80;;;;;;;16.78;49.85;101879.31;4864530;29;20518;-80
2023/02/01 03:33:20;;;;;;;6.70;2.67;;;;;;;16.78;49.72;101887.09;4881120;29;20117;-81
2023/02/01 03:36:09;;;;;;;7.07;2.67;;;;;;;16.77;49.81;101894.03;4881112;29;20049;-82
2023/02/01 03:38:47;;;;;;;6.82;2.63;;;;;;;16.77;49.92;101891.44;4864386;29;20037;-81
2023/02/01 03:41:36;;;;;;;6.45;2.67;;;;;;;16.78;49.83;101887.09;4864692;29;20037;-80
2023/02/01 03:44:29;;;;;;;7.13;2.80;;;;;;;16.78;49.65;101897.50;4864709;29;20488;-81
2023/02/01 03:47:10;;;;;;;8.43;3.10;;;;;;;16.78;49.84;101897.50;4855672;29;20108;-82
2023/02/01 03:49:43;;;;;;;5.70;2.70;;;;;;;16.77;49.80;101904.44;4864692;29;20127;-81
2023/02/01 03:52:14;;;;;;;5.15;2.35;;;;;;;16.77;49.96;101911.38;4864322;29;20043;-78
2023/02/01 03:54:40;;;;;;;7.53;2.45;;;;;;;16.76;49.79;101894.88;4864837;29;20036;-80
2023/02/01 03:57:11;;;;;;;7.20;2.53;;;;;;;16.75;49.51;101885.34;4864146;29;20040;-81
2023/02/01 03:59:41;;;;;;;7.57;2.80;;;;;;;16.75;49.99;101882.75;4864168;29;20041;-80
2023/02/01 04:02:06;;;;;;;6.35;2.60;;;;;;;16.76;49.91;101883.63;4849008;29;20480;-81
2023/02/01 04:04:33;;;;;;;7.28;2.22;;;;;;;16.74;49.80;101891.38;4848995;29;20049;-82
2023/02/01 04:06:58;;;;;;;6.22;2.45;;;;;;;16.75;49.79;101894.88;4833766;29;20041;-79
2023/02/01 04:09:23;;;;;;;6.57;2.53;;;;;;;16.76;49.73;101891.41;4851163;29;20069;-81
2023/02/01 04:11:49;;;;;;;5.03;2.45;;;;;;;16.76;49.93;101891.41;4871653;29;20044;-82
2023/02/01 04:14:14;;;;;;;5.93;2.40;;;;;;;16.75;49.97;101876.69;4855567;29;20045;-82
2023/02/01 04:16:40;;;;;;;5.20;2.22;;;;;;;16.75;49.95;101868.91;4871628;29;20399;-82
2023/02/01 04:19:05;;;;;;;5.43;2.42;;;;;;;16.75;50.00;101874.09;4856619;29;20079;-83
2023/02/01 04:21:30;;;;;;;5.57;2.45;;;;;;;16.76;49.92;101878.41;4842234;29;20065;-80
2023/02/01 04:23:56;;;;;;;4.53;2.30;;;;;;;16.75;50.14;101867.16;4841143;29;20049;-83
2023/02/01 04:26:21;;;;;;;5.47;2.38;;;;;;;16.76;49.99;101862.81;4857835;29;20051;-83
2023/02/01 04:28:47;;;;;;;7.80;2.40;;;;;;;16.75;49.97;101869.75;4859798;29;20040;-81
2023/02/01 04:31:16;;;;;;;6.15;2.22;;;;;;;16.75;49.98;101866.28;4856457;29;20045;-80
2023/02/01 04:33:42;;;;;;;5.25;2.50;;;;;;;16.75;49.70;101877.56;4869048;29;20045;-81
2023/02/01 04:36:08;;;;;;;4.82;2.30;;;;;;;16.74;50.15;101875.78;4883737;29;20488;-81
2023/02/01 04:38:33;;;;;;;6.68;2.40;;;;;;;16.75;50.14;101874.09;4848925;29;20064;-83
2023/02/01 04:40:59;;;;;;;4.68;2.38;;;;;;;16.76;49.96;101881.03;4836102;29;20041;-81
2023/02/01 04:43:24;;;;;;;4.47;1.88;;;;;;;16.76;49.69;101881.03;4867556;29;20564;-81
2023/02/01 04:45:50;;;;;;;4.78;2.05;;;;;;;16.76;50.00;101870.63;4851590;29;20041;-81
2023/02/01 04:48:18;;;;;;;6.60;2.38;;;;;;;16.76;49.93;101865.41;4866745;29;20029;-82
2023/02/01 04:50:47;;;;;;;4.97;2.20;;;;;;;16.76;50.09;101865.41;4866034;29;20041;-82
2023/02/01 04:53:14;;;;;;;5.53;2.42;;;;;;;16.75;49.85;101854.16;4850893;29;20042;-82
2023/02/01 04:55:39;;;;;;;4.25;2.15;;;;;;;16.74;50.04;101856.72;4866407;29;20037;-83
2023/02/01 04:58:05;;;;;;;5.28;2.28;;;;;;;16.74;50.24;101861.94;4851686;29;20540;-82
2023/02/01 05:00:30;;;;;;;5.70;2.50;;;;;;;16.74;49.88;101857.59;4868560;29;20041;-83
2023/02/01 05:02:55;;;;;;;6.90;2.17;;;;;;;16.74;50.04;101857.59;4833149;29;20045;-82
2023/02/01 05:05:21;;;;;;;5.95;2.03;;;;;;;16.74;50.08;101851.53;4848076;29;20044;-80
2023/02/01 05:07:47;;;;;;;5.20;2.20;;;;;;;16.73;50.23;101866.28;4850839;29;20049;-80
2023/02/01 05:10:12;;;;;;;4.65;2.20;;;;;;;16.74;50.03;101867.13;4835045;29;20037;-83
2023/02/01 05:15:21;;;;;;;;;;;;;;;16.75;50.14;101884.50;4868420;29;20111;-83
2023/02/01 05:17:46;;;;;;;4.32;2.13;;;;;;;16.74;49.91;101883.59;4849762;29;19959;-83
2023/02/01 05:20:12;;;;;;;4.15;1.90;;;;;;;16.74;50.19;101888.78;4834349;29;20485;-82
2023/02/01 05:22:37;;;;;;;6.28;2.22;;;;;;;16.75;50.16;101898.34;4835198;29;20049;-83
2023/02/01 05:25:03;;;;;;;6.50;2.20;;;;;;;16.75;50.09;101900.94;4850949;29;20048;-82
2023/02/01 05:27:30;;;;;;;4.35;2.17;;;;;;;16.77;49.81;101900.97;4868714;29;20041;-84
2023/02/01 05:29:55;;;;;;;5.88;2.10;;;;;;;16.76;50.17;101891.41;4885315;29;20076;-81
2023/02/01 05:32:21;;;;;;;4.38;1.65;;;;;;;16.76;50.05;101883.63;4868141;29;20115;-82
2023/02/01 05:34:46;;;;;;;4.13;1.95;;;;;;;16.76;50.21;101886.22;4837191;29;20076;-80
2023/02/01 05:37:12;;;;;;;4.78;2.03;;;;;;;16.76;50.07;101875.81;4836591;29;20041;-81
2023/02/01 05:39:37;;;;;;;4.25;1.83;;;;;;;16.76;50.00;101881.03;4851919;29;20041;-79
2023/02/01 05:42:02;;;;;;;4.65;1.80;;;;;;;16.76;50.20;101875.81;4867729;29;20045;-81
2023/02/01 05:44:28;;;;;;;4.97;2.15;;;;;;;16.75;50.21;101872.34;4837092;29;20472;-81
2023/02/01 05:46:54;;;;;;;3.97;1.80;;;;;;;16.76;50.09;101868.03;4852315;29;20057;-81
2023/02/01 05:49:20;;;;;;;4.18;1.92;;;;;;;16.77;49.96;101874.97;4836875;29;20041;-82
2023/02/01 05:51:45;;;;;;;4.18;1.73;;;;;;;16.77;50.05;101873.25;4836635;29;20052;-82
2023/02/01 05:54:11;;;;;;;3.92;1.85;;;;;;;16.77;50.21;101874.97;4836468;29;20056;-83
2023/02/01 05:56:36;;;;;;;4.85;1.83;;;;;;;16.76;50.09;101874.09;4836237;29;20048;-82
2023/02/01 05:59:02;;;;;;;4.20;2.00;;;;;;;16.77;50.06;101882.78;4851739;29;20063;-83
2023/02/01 06:01:27;;;;;;;3.30;1.70;;;;;;;16.76;50.00;101876.69;4852372;29;20119;-83
2023/02/01 06:03:52;;;;;;;4.22;2.10;;;;;;;16.79;50.10;101886.28;4851634;29;20040;-79
2023/02/01 06:06:19;;;;;;;4.90;2.10;;;;;;;16.77;50.25;101886.25;4836094;29;20049;-81
2023/02/01 06:08:45;;;;;;;5.30;2.20;;;;;;;16.77;50.34;101881.03;4867198;29;20041;-84
2023/02/01 06:11:10;;;;;;;5.57;2.60;;;;;;;16.78;50.40;101876.72;4851699;29;20401;-83
2023/02/01 06:13:37;;;;;;;5.40;2.40;;;;;;;16.77;50.33;101883.66;4837664;29;20041;-87
2023/02/01 06:16:03;;;;;;;5.60;2.25;;;;;;;16.79;50.30;101883.66;4853855;29;20037;-89
2023/02/01 06:18:30;;;;;;;7.70;2.25;;;;;;;16.77;50.40;101882.78;4837684;29;20519;-88
2023/02/01 06:20:57;;;;;;;6.80;2.45;;;;;;;16.78;50.46;101893.16;4837341;29;20469;-88
2023/02/01 06:23:23;;;;;;;7.63;2.65;;;;;;;16.79;50.54;101886.28;4867505;29;20029;-87
2023/02/01 06:26:04;;;;;;;10.25;2.40;;;;;;;16.80;50.60;101890.63;4850968;29;20056;-81
2023/02/01 06:28:31;;;;;;;5.03;2.33;;;;;;;16.79;50.63;101883.66;4882484;29;20051;-80
2023/02/01 06:30:57;;;;;;;5.22;1.95;;;;;;;16.80;50.67;101885.44;4850237;29;20041;-77
2023/02/01 06:33:26;;;;;;;6.50;2.35;;;;;;;16.80;50.73;101898.44;4865288;29;20064;-81
2023/02/01 06:35:58;;;;;;;4.40;2.00;;;;;;;16.80;50.65;101891.50;4865827;29;20045;-75
2023/02/01 06:38:26;;;;;;;7.32;2.40;;;;;;;16.80;50.64;101896.69;4865889;29;20523;-84
2023/02/01 06:40:55;;;;;;;5.82;2.13;;;;;;;16.81;50.67;101894.97;4851418;29;20067;-85
2023/02/01 06:43:26;;;;;;;9.35;2.00;;;;;;;16.80;50.59;101885.44;4866443;29;20037;-87
2023/02/01 06:45:51;;;;;;;6.70;2.15;;;;;;;16.80;50.78;101893.22;4866603;29;20037;-86
2023/02/01 06:48:18;;;;;;;5.55;2.10;;;;;;;16.80;50.85;101888.91;4866011;29;20045;-84
2023/02/01 06:50:43;;;;;;;6.07;2.00;;;;;;;16.80;50.93;101888.91;4851561;29;20037;-86
2023/02/01 06:53:09;;;;;;;5.70;2.17;;;;;;;16.81;51.06;101887.16;4835691;29;20084;-86
2023/02/01 06:55:35;;;;;;;6.93;2.15;;;;;;;16.82;50.85;101886.31;4866435;29;20044;-87
2023/02/01 06:58:01;;;;;;;6.32;2.10;;;;;;;16.82;51.05;101896.72;4882537;29;20078;-87
2023/02/01 07:00:27;;;;;;;5.35;2.10;;;;;;;16.83;50.83;101883.75;4835841;29;20046;-87
2023/02/01 07:02:53;;;;;;;3.97;1.77;;;;;;;16.84;50.86;101887.22;4850146;29;20045;-85
2023/02/01 07:05:18;;;;;;;5.38;2.22;;;;;;;16.84;51.02;101888.06;4835075;29;20045;-86
2023/02/01 07:07:44;;;;;;;4.47;1.92;;;;;;;16.83;50.94;101891.53;4850160;29;20069;-85
2023/02/01 07:10:10;;;;;;;4.15;1.70;;;;;;;16.83;51.30;101890.66;4835366;29;20037;-86
2023/02/01 07:12:35;;;;;;;4.90;2.08;;;;;;;17.05;51.26;101886.56;4849974;29;20176;-85
2023/02/01 07:15:02;;;;;;;3.90;1.77;;;;;;;17.20;50.97;101883.19;4849383;29;20120;-85
2023/02/01 07:17:29;;;;;;;7.63;2.20;;;;;;;17.28;50.80;101889.34;4834747;29;20071;-86
2023/02/01 07:19:55;;;;;;;5.43;2.30;;;;;;;17.35;50.62;101898.06;4865788;29;20380;-87
2023/02/01 07:22:20;;;;;;;7.60;2.25;;;;;;;17.39;50.85;101897.25;4865463;29;20037;-86
2023/02/01 07:24:45;;;;;;;5.25;1.95;;;;;;;17.39;50.67;101890.31;4827019;29;20053;-86
2023/02/01 07:27:11;;;;;;;5.50;1.95;;;;;;;17.41;50.67;101906.81;4846813;29;20738;-83
2023/02/01 07:29:36;;;;;;;6.00;2.03;;;;;;;17.42;50.35;101900.75;4846725;29;20067;-86
2023/02/01 07:32:02;;;;;;;4.15;1.67;;;;;;;17.41;50.43;101911.13;4819048;29;20168;-82
2023/02/01 07:34:28;;;;;;;4.30;1.98;;;;;;;17.42;50.37;101903.34;4831894;29;20049;-87
2023/02/01 07:36:53;;;;;;;5.00;1.85;;;;;;;17.43;50.19;101905.09;4816460;29;20580;-83
2023/02/01 07:39:19;;;;;;;5.00;2.03;;;;;;;17.43;50.35;101897.28;4831762;29;20096;-84
2023/02/01 07:41:46;;;;;;;7.35;1.70;;;;;;;17.44;50.12;101905.94;4849797;29;20485;-85
2023/02/01 07:44:11;;;;;;;3.95;1.75;;;;;;;17.42;50.20;101910.28;4850424;29;20030;-87
2023/02/01 07:46:38;;;;;;;4.65;1.88;;;;;;;17.44;50.08;101900.75;4830257;29;20044;-86
2023/02/01 07:49:03;;;;;;;6.30;1.80;;;;;;;17.45;50.27;101913.78;4831185;29;20061;-88
2023/02/01 07:51:29;;;;;;;5.40;2.10;;;;;;;17.46;50.07;101923.34;4859156;29;20041;-86
2023/02/01 07:53:54;;;;;;;6.05;2.17;;;;;;;17.45;50.30;101920.72;4826077;29;20132;-86
2023/02/01 07:56:22;;;;;;;3.95;1.75;;;;;;;17.46;50.03;101915.53;4818636;29;20045;-86
2023/02/01 07:58:53;;;;;;;3.72;1.90;;;;;;;17.46;50.21;101910.34;4847762;29;20041;-86
2023/02/01 08:01:26;;;;;;;3.95;1.77;;;;;;;17.48;49.90;101900.81;4833286;29;20113;-86
2023/02/01 08:03:54;;;;;;;3.75;1.60;;;;;;;17.51;49.83;101914.69;4847195;29;20078;-87
2023/02/01 08:06:21;;;;;;;3.90;1.60;;;;;;;17.49;49.90;101896.47;4847050;29;20038;-86
2023/02/01 08:08:48;;;;;;;7.05;1.80;;;;;;;17.51;49.95;101892.16;4832118;29;20045;-86
2023/02/01 08:11:14;;;;;;;5.50;1.90;;;;;;;17.53;49.74;101885.22;4846947;29;20104;-84
2023/02/01 08:13:40;;;;;;;4.45;1.80;;;;;;;17.55;49.72;101883.50;4846760;29;20034;-82
2023/02/01 08:16:08;;;;;;;4.10;1.67;;;;;;;17.58;49.88;101878.31;4847710;29;20041;-85
2023/02/01 08:18:35;;;;;;;5.05;1.77;;;;;;;17.59;49.75;101880.03;4845930;29;20037;-85
2023/02/01 08:21:05;;;;;;;4.53;1.60;;;;;;;17.63;49.61;101878.34;4846382;29;20033;-88
2023/02/01 08:23:30;;;;;;;3.85;1.70;;;;;;;17.64;49.78;101880.97;4816765;29;20049;-89
2023/02/01 08:26:24;;;;;;;3.92;1.92;;;;;;;17.65;49.68;101869.66;4831730;29;20501;-88
2023/02/01 08:28:55;;;;;;;3.80;1.67;;;;;;;17.66;49.56;101878.38;4845846;29;20048;-88
2023/02/01 08:31:22;;;;;;;4.70;1.85;;;;;;;17.66;49.85;101880.97;4846309;29;20049;-86
2023/02/01 08:33:56;;;;;;;3.22;1.65;;;;;;;17.66;49.56;101886.19;4846256;29;20045;-89
2023/02/01 08:36:23;;;;;;;4.25;1.85;;;;;;;17.68;49.61;101894.84;4846704;29;20553;-89
2023/02/01 08:38:49;;;;;;;5.93;2.08;;;;;;;17.68;49.73;101897.44;4816504;29;20046;-86
2023/02/01 08:41:17;;;;;;;4.68;1.90;;;;;;;17.67;49.92;101888.78;4831004;29;20416;-88
2023/02/01 08:43:43;;;;;;;6.32;2.15;;;;;;;17.70;49.63;101874.91;4846446;29;20392;-87
2023/02/01 08:46:10;;;;;;;3.80;1.77;;;;;;;17.71;49.42;101862.78;4846007;29;20445;-86
2023/02/01 08:48:36;;;;;;;4.22;1.80;;;;;;;17.72;49.51;101867.13;4846269;29;20044;-86
2023/02/01 08:51:07;;;;;;;4.47;1.73;;;;;;;17.74;49.45;101865.41;4815586;29;20385;-87
2023/02/01 08:53:33;;;;;;;3.55;1.52;;;;;;;17.72;49.60;101867.13;4846197;29;20481;-86
2023/02/01 08:55:59;;;;;;;7.80;1.90;;;;;;;17.69;49.53;101860.16;4846191;29;20076;-87
2023/02/01 08:58:24;;;;;;;10.05;3.58;;;;;;;17.67;49.60;101860.16;4833757;29;20041;-84
2023/02/01 09:00:50;;;;;;;11.35;3.15;;;;;;;17.65;49.64;101861.88;4819815;29;20065;-88
2023/02/01 09:03:16;;;;;;;10.35;3.10;;;;;;;17.66;49.66;101862.75;4867610;29;20126;-87
2023/02/01 09:05:41;;;;;;;7.47;3.05;;;;;;;17.64;49.71;101856.66;4835031;29;20045;-88
2023/02/01 09:08:07;;;;;;;6.32;2.67;;;;;;;17.65;49.64;101853.19;4821745;29;20045;-88
2023/02/01 09:10:34;;;;;;;4.50;2.47;;;;;;;17.65;49.78;101868.81;4834597;29;20500;-87
2023/02/01 09:12:59;;;;;;;7.97;2.85;;;;;;;17.63;49.46;101863.59;4834332;29;20094;-87
2023/02/01 09:15:25;;;;;;;5.00;2.80;;;;;;;17.65;49.55;101864.47;4834576;29;20049;-86
2023/02/01 09:17:51;;;;;;;8.32;3.10;;;;;;;17.64;49.41;101864.47;4824155;29;20226;-86
2023/02/01 09:20:16;;;;;;;9.40;3.10;;;;;;;17.64;49.71;101865.34;4858036;29;20037;-88
2023/02/01 09:22:41;;;;;;;7.50;2.70;;;;;;;17.66;49.48;101865.38;4856217;29;20041;-87
2023/02/01 09:25:08;;;;;;;6.50;2.72;;;;;;;17.65;49.60;101874.00;4820632;29;20054;-85
2023/02/01 09:27:33;;;;;;;5.13;2.78;;;;;;;17.66;49.47;101873.16;4849680;29;20040;-84
2023/02/01 09:29:59;;;;;;;7.25;2.53;;;;;;;17.64;49.73;101861.88;4849763;29;20046;-87
2023/02/01 09:32:24;;;;;;;7.97;3.10;;;;;;;17.63;49.53;101871.38;4834534;29;20125;-86
2023/02/01 09:34:51;;;;;;;6.13;2.92;;;;;;;17.64;49.76;101869.69;4833999;29;20121;-85
2023/02/01 09:37:16;;;;;;;6.88;2.80;;;;;;;17.64;49.77;101869.69;4865812;29;20034;-87
2023/02/01 09:39:45;;;;;;;5.50;2.50;;;;;;;17.63;49.62;101865.31;4819727;29;20138;-81
2023/02/01 09:42:25;;;;;;;7.05;2.00;;;;;;;17.64;49.57;101869.69;4834796;29;20094;-83
2023/02/01 09:45:02;;;;;;;5.40;2.30;;;;;;;17.62;49.59;101874.00;4865283;29;20077;-82
2023/02/01 09:47:29;;;;;;;7.47;2.70;;;;;;;17.64;49.84;101854.94;4851052;29;20479;-87
2023/02/01 09:49:57;;;;;;;6.35;2.60;;;;;;;17.66;49.72;101854.94;4849274;29;20065;-89
2023/02/01 09:52:30;;;;;;;5.63;2.60;;;;;;;17.65;49.52;101855.78;4849661;29;20100;-88
2023/02/01 09:55:02;;;;;;;4.40;2.42;;;;;;;17.68;49.49;101855.81;4849610;29;20078;-89
2023/02/01 09:58:01;;;;;;;5.68;2.30;;;;;;;17.66;49.55;101855.81;4849196;29;20544;-87
2023/02/01 10:00:36;;;;;;;6.18;2.28;;;;;;;17.68;49.76;101855.81;4848685;29;20044;-88
2023/02/01 10:03:02;;;;;;;6.22;2.38;;;;;;;17.71;49.48;101852.38;4849206;29;20041;-88
2023/02/01 10:06:04;;;;;;;5.13;2.08;;;;;;;17.71;49.51;101855.84;4819100;29;20070;-89
2023/02/01 10:08:48;;;;;;;5.55;2.47;;;;;;;17.73;49.33;101861.94;4849380;29;20033;-89
2023/02/01 10:11:47;;;;;;;8.77;2.40;;;;;;;17.73;49.67;101864.53;4848378;29;20094;-89
2023/02/01 10:14:52;;;;;;;4.45;2.25;;;;;;;17.71;49.66;101866.25;4865378;29;20086;-88
2023/02/01 10:17:49;;;;;;;;;;;;;;;17.72;49.29;101864.50;4821975;29;20154;-90
2023/02/01 10:20:44;;;;;;;5.68;2.28;;;;;;;17.73;49.49;101864.53;4809636;29;20018;-89
2023/02/01 10:23:23;;;;;;;3.95;2.20;;;;;;;17.79;49.39;101874.09;4856996;29;20033;-90
2023/02/01 10:25:54;;;;;;;6.47;2.45;;;;;;;17.79;49.21;101869.78;4850289;29;20097;-88
2023/02/01 10:28:21;;;;;;;4.50;2.33;;;;;;;17.79;49.25;101867.19;4865275;29;20033;-87
2023/02/01 10:30:48;;;;;;;5.57;2.15;;;;;;;17.79;49.26;101866.28;4867297;29;20105;-88
2023/02/01 10:33:33;;;;;;;4.88;2.15;;;;;;;17.77;49.12;101865.41;4869048;29;20022;-89
2023/02/01 10:36:08;;;;;;;6.20;2.35;;;;;;;17.76;49.18;101872.34;4867387;29;20034;-88
2023/02/01 10:38:34;;;;;;;5.18;2.10;;;;;;;17.74;49.35;101868.84;4866034;29;20040;-90
2023/02/01 10:41:14;;;;;;;4.93;2.22;;;;;;;17.75;49.45;101864.56;4837056;29;20128;-91
2023/02/01 10:43:40;;;;;;;4.35;1.95;;;;;;;17.77;49.30;101870.59;4866318;29;20033;-88
2023/02/01 10:46:07;;;;;;;5.38;2.05;;;;;;;17.78;49.21;101877.56;4834642;29;20123;-90
2023/02/01 10:48:34;;;;;;;5.07;2.13;;;;;;;17.79;49.07;101871.50;4819773;29;20049;-91
2023/02/01 10:51:16;;;;;;;4.85;2.33;;;;;;;17.80;49.12;101881.91;4834507;29;20046;-90
2023/02/01 10:53:56;;;;;;;5.97;2.30;;;;;;;17.82;49.18;101875.03;4849257;29;20030;-81
2023/02/01 10:56:26;;;;;;;4.07;1.95;;;;;;;17.84;49.11;101870.69;4846719;29;20113;-82
2023/02/01 10:59:01;;;;;;;4.65;2.05;;;;;;;17.85;49.16;101862.00;4846493;29;20034;-81
2023/02/01 11:01:42;;;;;;;4.72;2.05;;;;;;;17.83;49.20;101868.06;4846843;29;20037;-81
2023/02/01 11:04:13;;;;;;;4.82;2.00;;;;;;;17.83;49.34;101858.56;4846390;29;20097;-82
2023/02/01 11:07:19;;;;;;;5.03;2.42;;;;;;;17.83;49.26;101858.56;4846807;29;20433;-81
2023/02/01 11:09:54;;;;;;;3.10;1.70;;;;;;;17.84;49.25;101859.41;4843777;29;20401;-81
2023/02/01 11:12:27;;;;;;;6.75;2.10;;;;;;;17.84;49.43;101860.28;4846688;29;20057;-83
2023/02/01 11:14:58;;;;;;;8.80;4.07;;;;;;;17.84;49.46;101851.59;4846868;29;20037;-82
2023/02/01 11:17:28;;;;;;;7.13;2.28;;;;;;;17.83;49.30;101852.47;4845892;29;20082;-81
2023/02/01 11:19:59;;;;;;;4.97;1.85;;;;;;;17.84;49.29;101856.81;4845958;29;20044;-81
2023/02/01 11:22:27;;;;;;;5.10;1.90;;;;;;;17.83;49.24;101858.56;4845324;29;20042;-80
2023/02/01 11:24:53;;;;;;;4.50;2.00;;;;;;;17.83;49.28;101852.47;4846043;29;20069;-82
2023/02/01 11:27:22;;;;;;;3.17;1.50;;;;;;;17.83;49.19;101868.06;4846344;29;20485;-81
2023/02/01 11:29:51;;;;;;;5.60;1.98;;;;;;;17.83;49.10;101855.06;4846141;29;20033;-84
2023/02/01 11:32:18;;;;;;;6.13;1.92;;;;;;;17.83;49.29;101850.75;4846250;29;20140;-84
2023/02/01 11:34:52;;;;;;;3.78;1.83;;;;;;;17.83;49.23;101863.78;4846061;29;20052;-84
2023/02/01 11:37:23;;;;;;;5.32;2.10;;;;;;;17.84;49.02;101860.28;4846248;29;20038;-83
2023/02/01 11:39:57;;;;;;;4.53;1.60;;;;;;;17.85;48.94;101849.00;4846054;29;20033;-83
2023/02/01 11:42:24;;;;;;;4.68;2.15;;;;;;;17.87;49.02;101859.44;4846119;29;20067;-83
2023/02/01 11:44:49;;;;;;;4.63;1.70;;;;;;;17.88;48.98;101840.34;4830931;29;20090;-84
2023/02/01 11:47:25;;;;;;;4.35;1.90;;;;;;;17.90;48.90;101841.22;4815542;29;20400;-82
2023/02/01 11:50:02;;;;;;;4.20;1.88;;;;;;;17.91;48.97;101842.97;4848192;29;20042;-79
2023/02/01 11:52:42;;;;;;;4.05;1.88;;;;;;;17.89;48.89;101829.91;4846180;29;20029;-81
2023/02/01 11:55:28;;;;;;;5.68;2.00;;;;;;;17.88;49.21;101835.16;4845597;29;20037;-81
2023/02/01 11:58:27;;;;;;;4.55;1.80;;;;;;;17.91;48.90;101827.34;4845954;29;20507;-83
2023/02/01 12:01:19;;;;;;;5.65;2.08;;;;;;;17.93;49.02;101840.38;4845634;29;20085;-84
2023/02/01 12:03:53;;;;;;;3.80;1.88;;;;;;;17.95;48.80;101836.91;4847213;29;20037;-83